Aeroporto :
LOGIN :

Iscrizione | Disclaimer

   EN    FR    IT 

 










Sommario :    VFR   VFR Marginale   IFR   IFR Intensivo   IFR Molto Intensivo
Visibilità : 
Base nubi : 
>= 8 km
>= 3000ft
5 / 8 km
1000 / 3000 ft
1500m / 5 km
500 / 1000 ft
800 / 1500m
200 / 500 ft
< 800m
< 200 ft
Simboli :   Temporali  Nebbia  Neve Forte  Precipitazioni Forti  Vento > 20 kt
SIGMETs :   Varie  Temporali  Ghiacco  Turbolenza  Onda orograficha  Ceneri Vulcaniche







- Altitudine del aeroporto : 24 ft
- Codice IATA : FAO


LPFR - Faro

ULTIMO METAR :
  • 191230Z 11011KT CAVOK 30/16 Q1015

METARs OBSOLETI :
  • 191200Z 12011KT CAVOK 29/17 Q1015
  • 191130Z 11011KT CAVOK 29/18 Q1015
  • 191100Z 09011KT CAVOK 30/16 Q1015
  • 191030Z 08012KT 060V120 CAVOK 30/15 Q1015
  • 191000Z 08012G23KT CAVOK 30/15 Q1015

TAF TAF LPFR
Valido dal 19 a 12 ore il 20 a 12 ore UTC


191100Z 1912/2012 09015KT CAVOK
BECMG 1912/1915 12012KT
BECMG 1916/1919 28008KT
BECMG 2001/2004 09008KT
BECMG 2009/2012 11013KT
Nessun NOTAM noto per questo aeroporto.



MetMap, La meteo Aeronautica in un colpo d'occhio ! - Copyright ORBIFLY Dicembre 2007 - Disclaimer

ORBIFLY MET'MAP TEAM :

Programmazione e sviluppo : Alexandra Zaïnal
Concezione e sviluppo : Baudouin d'Aumeries
Co-Programmazione e sviluppo : Marc-Olivier Méhu
Supporto tecnico e logistico : Manuel Goepfert
Aiuto per la traduzione : Arnaldo La Scala

Contatto : metmap@orbifly.com




FONTI E CREDITI :

   NOAA